sensor_id;sensor_type;location;lat;lon;timestamp;pressure;altitude;pressure_sealevel;temperature;humidity
81224;BME280;70698;44.402;18.522;2024-03-25T00:01:29;96674.22;;;0.95;100.00
81224;BME280;70698;44.402;18.522;2024-03-25T00:03:54;96679.66;;;0.92;100.00
81224;BME280;70698;44.402;18.522;2024-03-25T00:06:20;96678.28;;;0.88;100.00
81224;BME280;70698;44.402;18.522;2024-03-25T00:08:46;96683.47;;;0.97;100.00
81224;BME280;70698;44.402;18.522;2024-03-25T00:11:12;96669.31;;;1.01;100.00
81224;BME280;70698;44.402;18.522;2024-03-25T00:13:38;96682.56;;;0.49;100.00
81224;BME280;70698;44.402;18.522;2024-03-25T00:16:04;96684.72;;;0.43;100.00
81224;BME280;70698;44.402;18.522;2024-03-25T00:18:30;96688.94;;;0.45;100.00
81224;BME280;70698;44.402;18.522;2024-03-25T00:20:57;96689.78;;;0.15;100.00
81224;BME280;70698;44.402;18.522;2024-03-25T00:23:22;96680.03;;;-0.03;100.00
81224;BME280;70698;44.402;18.522;2024-03-25T00:25:48;96680.97;;;-0.04;100.00
81224;BME280;70698;44.402;18.522;2024-03-25T00:28:14;96669.53;;;-0.11;100.00
81224;BME280;70698;44.402;18.522;2024-03-25T00:30:40;96669.16;;;-0.06;100.00
81224;BME280;70698;44.402;18.522;2024-03-25T00:33:05;96672.88;;;0.11;100.00
81224;BME280;70698;44.402;18.522;2024-03-25T00:35:33;96672.38;;;0.17;100.00
81224;BME280;70698;44.402;18.522;2024-03-25T00:37:59;96669.78;;;0.17;100.00
81224;BME280;70698;44.402;18.522;2024-03-25T00:40:24;96661.41;;;0.24;100.00
81224;BME280;70698;44.402;18.522;2024-03-25T00:42:50;96660.56;;;0.24;100.00
81224;BME280;70698;44.402;18.522;2024-03-25T00:45:16;96664.50;;;0.18;100.00
81224;BME280;70698;44.402;18.522;2024-03-25T00:47:42;96665.44;;;0.17;100.00
81224;BME280;70698;44.402;18.522;2024-03-25T00:50:08;96666.22;;;0.08;100.00
81224;BME280;70698;44.402;18.522;2024-03-25T00:52:34;96666.78;;;0.12;100.00
81224;BME280;70698;44.402;18.522;2024-03-25T00:55:00;96667.03;;;0.39;100.00
81224;BME280;70698;44.402;18.522;2024-03-25T00:57:26;96673.53;;;0.33;100.00
81224;BME280;70698;44.402;18.522;2024-03-25T00:59:52;96677.88;;;0.33;100.00
81224;BME280;70698;44.402;18.522;2024-03-25T01:02:18;96662.09;;;0.36;100.00
81224;BME280;70698;44.402;18.522;2024-03-25T01:04:43;96679.09;;;0.29;100.00
81224;BME280;70698;44.402;18.522;2024-03-25T01:07:09;96672.75;;;0.42;100.00
81224;BME280;70698;44.402;18.522;2024-03-25T01:09:35;96671.59;;;0.26;100.00
81224;BME280;70698;44.402;18.522;2024-03-25T01:12:01;96665.88;;;-0.08;100.00
81224;BME280;70698;44.402;18.522;2024-03-25T01:14:26;96667.34;;;-0.15;100.00
81224;BME280;70698;44.402;18.522;2024-03-25T01:16:52;96669.34;;;-0.19;100.00
81224;BME280;70698;44.402;18.522;2024-03-25T01:19:18;96673.72;;;-0.10;100.00
81224;BME280;70698;44.402;18.522;2024-03-25T01:21:46;96663.75;;;0.07;100.00
81224;BME280;70698;44.402;18.522;2024-03-25T01:24:11;96655.53;;;-0.08;100.00
81224;BME280;70698;44.402;18.522;2024-03-25T01:26:37;96651.84;;;-0.15;100.00
81224;BME280;70698;44.402;18.522;2024-03-25T01:29:03;96656.16;;;-0.25;100.00
81224;BME280;70698;44.402;18.522;2024-03-25T01:31:28;96655.38;;;-0.16;100.00
81224;BME280;70698;44.402;18.522;2024-03-25T01:33:54;96645.94;;;-0.27;100.00
81224;BME280;70698;44.402;18.522;2024-03-25T01:36:19;96654.50;;;-0.26;100.00
81224;BME280;70698;44.402;18.522;2024-03-25T01:38:45;96653.38;;;-0.03;100.00
81224;BME280;70698;44.402;18.522;2024-03-25T01:41:12;96653.28;;;-0.22;100.00
81224;BME280;70698;44.402;18.522;2024-03-25T01:43:38;96658.03;;;-0.27;100.00
81224;BME280;70698;44.402;18.522;2024-03-25T01:46:04;96666.91;;;-0.20;100.00
81224;BME280;70698;44.402;18.522;2024-03-25T01:48:31;96666.19;;;-0.22;100.00
81224;BME280;70698;44.402;18.522;2024-03-25T01:50:58;96668.19;;;-0.35;100.00
81224;BME280;70698;44.402;18.522;2024-03-25T01:53:24;96657.19;;;-0.28;100.00
81224;BME280;70698;44.402;18.522;2024-03-25T01:55:51;96656.25;;;-0.27;100.00
81224;BME280;70698;44.402;18.522;2024-03-25T01:58:19;96669.94;;;-0.15;100.00
81224;BME280;70698;44.402;18.522;2024-03-25T02:00:45;96669.13;;;-0.36;100.00
81224;BME280;70698;44.402;18.522;2024-03-25T02:03:11;96672.75;;;-0.60;100.00
81224;BME280;70698;44.402;18.522;2024-03-25T02:05:36;96676.88;;;-0.89;100.00
81224;BME280;70698;44.402;18.522;2024-03-25T02:08:03;96677.63;;;-0.98;100.00
81224;BME280;70698;44.402;18.522;2024-03-25T02:10:29;96680.41;;;-0.90;100.00
81224;BME280;70698;44.402;18.522;2024-03-25T02:12:55;96674.69;;;-0.73;100.00
81224;BME280;70698;44.402;18.522;2024-03-25T02:15:21;96675.13;;;-0.68;100.00
81224;BME280;70698;44.402;18.522;2024-03-25T02:17:47;96681.38;;;-0.70;100.00
81224;BME280;70698;44.402;18.522;2024-03-25T02:20:13;96674.75;;;-0.63;100.00
81224;BME280;70698;44.402;18.522;2024-03-25T02:22:41;96674.72;;;-0.52;100.00
81224;BME280;70698;44.402;18.522;2024-03-25T02:25:08;96671.69;;;-0.36;100.00
81224;BME280;70698;44.402;18.522;2024-03-25T02:27:35;96670.59;;;-0.13;100.00
81224;BME280;70698;44.402;18.522;2024-03-25T02:30:03;96682.31;;;-0.09;100.00
81224;BME280;70698;44.402;18.522;2024-03-25T02:32:29;96685.44;;;-0.36;100.00
81224;BME280;70698;44.402;18.522;2024-03-25T02:34:56;96678.00;;;-0.50;100.00
81224;BME280;70698;44.402;18.522;2024-03-25T02:37:22;96690.38;;;-0.23;100.00
81224;BME280;70698;44.402;18.522;2024-03-25T02:39:48;96697.69;;;-0.28;100.00
81224;BME280;70698;44.402;18.522;2024-03-25T02:42:14;96696.03;;;-0.29;100.00
81224;BME280;70698;44.402;18.522;2024-03-25T02:44:40;96696.75;;;-0.48;100.00
81224;BME280;70698;44.402;18.522;2024-03-25T02:47:08;96703.00;;;-0.51;100.00
81224;BME280;70698;44.402;18.522;2024-03-25T02:49:34;96712.56;;;-0.41;100.00
81224;BME280;70698;44.402;18.522;2024-03-25T02:52:00;96706.13;;;-0.47;100.00
81224;BME280;70698;44.402;18.522;2024-03-25T02:54:25;96704.09;;;-0.44;100.00
81224;BME280;70698;44.402;18.522;2024-03-25T02:56:52;96691.47;;;-0.47;100.00
81224;BME280;70698;44.402;18.522;2024-03-25T02:59:18;96703.34;;;-0.34;100.00
81224;BME280;70698;44.402;18.522;2024-03-25T03:01:44;96705.56;;;-0.30;100.00
81224;BME280;70698;44.402;18.522;2024-03-25T03:04:10;96709.66;;;-0.27;100.00
81224;BME280;70698;44.402;18.522;2024-03-25T03:06:36;96707.41;;;-0.21;100.00
81224;BME280;70698;44.402;18.522;2024-03-25T03:09:02;96712.94;;;-0.25;100.00
81224;BME280;70698;44.402;18.522;2024-03-25T03:11:28;96715.81;;;-0.19;100.00
81224;BME280;70698;44.402;18.522;2024-03-25T03:13:53;96711.53;;;-0.09;100.00
81224;BME280;70698;44.402;18.522;2024-03-25T03:16:19;96712.75;;;-0.33;100.00
81224;BME280;70698;44.402;18.522;2024-03-25T03:18:45;96717.06;;;-0.55;100.00
81224;BME280;70698;44.402;18.522;2024-03-25T03:21:10;96725.25;;;-0.50;100.00
81224;BME280;70698;44.402;18.522;2024-03-25T03:23:36;96720.75;;;-0.36;100.00
81224;BME280;70698;44.402;18.522;2024-03-25T03:26:02;96724.72;;;-0.32;100.00
81224;BME280;70698;44.402;18.522;2024-03-25T03:28:28;96719.66;;;-0.13;100.00
81224;BME280;70698;44.402;18.522;2024-03-25T03:30:54;96717.53;;;-0.08;100.00
81224;BME280;70698;44.402;18.522;2024-03-25T03:33:21;96717.19;;;-0.15;100.00
81224;BME280;70698;44.402;18.522;2024-03-25T03:35:49;96717.28;;;-0.05;100.00
81224;BME280;70698;44.402;18.522;2024-03-25T03:38:14;96718.31;;;0.13;100.00
81224;BME280;70698;44.402;18.522;2024-03-25T03:40:40;96719.81;;;0.16;100.00
81224;BME280;70698;44.402;18.522;2024-03-25T03:43:06;96711.25;;;0.15;100.00
81224;BME280;70698;44.402;18.522;2024-03-25T03:45:34;96715.41;;;0.27;100.00
81224;BME280;70698;44.402;18.522;2024-03-25T03:48:03;96715.56;;;0.35;100.00
81224;BME280;70698;44.402;18.522;2024-03-25T03:50:28;96712.88;;;0.16;100.00
81224;BME280;70698;44.402;18.522;2024-03-25T03:52:54;96714.06;;;0.03;100.00
81224;BME280;70698;44.402;18.522;2024-03-25T03:55:20;96730.75;;;-0.02;100.00
81224;BME280;70698;44.402;18.522;2024-03-25T03:57:45;96740.88;;;0.11;100.00
81224;BME280;70698;44.402;18.522;2024-03-25T04:00:11;96739.38;;;0.09;100.00
81224;BME280;70698;44.402;18.522;2024-03-25T04:02:39;96739.19;;;0.00;100.00
81224;BME280;70698;44.402;18.522;2024-03-25T04:05:05;96744.22;;;0.02;100.00
81224;BME280;70698;44.402;18.522;2024-03-25T04:07:32;96739.69;;;-0.47;100.00
81224;BME280;70698;44.402;18.522;2024-03-25T04:09:58;96738.28;;;-0.83;100.00
81224;BME280;70698;44.402;18.522;2024-03-25T04:12:25;96740.91;;;-0.94;100.00
81224;BME280;70698;44.402;18.522;2024-03-25T04:14:50;96736.72;;;-1.06;100.00
81224;BME280;70698;44.402;18.522;2024-03-25T04:17:21;96736.44;;;-0.81;100.00
81224;BME280;70698;44.402;18.522;2024-03-25T04:19:50;96742.69;;;-0.63;100.00
81224;BME280;70698;44.402;18.522;2024-03-25T04:22:16;96737.09;;;-0.47;100.00
81224;BME280;70698;44.402;18.522;2024-03-25T04:24:43;96730.69;;;-0.53;100.00
81224;BME280;70698;44.402;18.522;2024-03-25T04:27:09;96737.13;;;-0.26;100.00
81224;BME280;70698;44.402;18.522;2024-03-25T04:29:35;96735.03;;;-0.12;100.00
81224;BME280;70698;44.402;18.522;2024-03-25T04:32:01;96761.81;;;-0.13;100.00
81224;BME280;70698;44.402;18.522;2024-03-25T04:34:28;96750.47;;;-0.21;100.00
81224;BME280;70698;44.402;18.522;2024-03-25T04:36:53;96763.47;;;-0.44;100.00
81224;BME280;70698;44.402;18.522;2024-03-25T04:39:19;96767.97;;;-0.46;100.00
81224;BME280;70698;44.402;18.522;2024-03-25T04:41:45;96771.50;;;-0.47;100.00
81224;BME280;70698;44.402;18.522;2024-03-25T04:44:11;96775.34;;;-0.41;100.00
81224;BME280;70698;44.402;18.522;2024-03-25T04:46:37;96777.22;;;-0.43;100.00
81224;BME280;70698;44.402;18.522;2024-03-25T04:49:03;96778.53;;;-0.49;100.00
81224;BME280;70698;44.402;18.522;2024-03-25T04:51:28;96784.66;;;-0.29;100.00
81224;BME280;70698;44.402;18.522;2024-03-25T04:53:54;96770.47;;;-0.34;100.00
81224;BME280;70698;44.402;18.522;2024-03-25T04:56:20;96784.16;;;-0.23;100.00
81224;BME280;70698;44.402;18.522;2024-03-25T04:58:45;96777.63;;;-0.27;100.00
81224;BME280;70698;44.402;18.522;2024-03-25T05:01:11;96781.13;;;-0.28;100.00
81224;BME280;70698;44.402;18.522;2024-03-25T05:03:36;96776.94;;;-0.08;100.00
81224;BME280;70698;44.402;18.522;2024-03-25T05:06:02;96774.34;;;0.13;100.00
81224;BME280;70698;44.402;18.522;2024-03-25T05:08:28;96782.72;;;0.26;100.00
81224;BME280;70698;44.402;18.522;2024-03-25T05:10:53;96775.84;;;0.15;100.00
81224;BME280;70698;44.402;18.522;2024-03-25T05:13:19;96788.69;;;0.06;100.00
81224;BME280;70698;44.402;18.522;2024-03-25T05:15:52;96794.97;;;0.03;100.00
81224;BME280;70698;44.402;18.522;2024-03-25T05:18:18;96796.78;;;-0.09;100.00
81224;BME280;70698;44.402;18.522;2024-03-25T05:20:44;96796.06;;;-0.31;100.00
81224;BME280;70698;44.402;18.522;2024-03-25T05:23:10;96798.34;;;-0.17;100.00
81224;BME280;70698;44.402;18.522;2024-03-25T05:25:36;96808.63;;;-0.06;100.00
81224;BME280;70698;44.402;18.522;2024-03-25T05:28:02;96811.44;;;-0.09;100.00
81224;BME280;70698;44.402;18.522;2024-03-25T05:30:27;96811.06;;;-0.25;100.00
81224;BME280;70698;44.402;18.522;2024-03-25T05:32:53;96817.56;;;-0.42;100.00
81224;BME280;70698;44.402;18.522;2024-03-25T05:35:19;96816.38;;;-0.38;100.00
81224;BME280;70698;44.402;18.522;2024-03-25T05:37:45;96813.25;;;-0.41;100.00
81224;BME280;70698;44.402;18.522;2024-03-25T05:40:11;96826.63;;;-0.16;100.00
81224;BME280;70698;44.402;18.522;2024-03-25T05:42:37;96834.44;;;-0.27;100.00
81224;BME280;70698;44.402;18.522;2024-03-25T05:45:03;96812.44;;;-0.53;100.00
81224;BME280;70698;44.402;18.522;2024-03-25T05:47:29;96823.31;;;-0.38;100.00
81224;BME280;70698;44.402;18.522;2024-03-25T05:49:55;96829.66;;;-0.11;100.00
81224;BME280;70698;44.402;18.522;2024-03-25T05:52:21;96829.47;;;0.02;100.00
81224;BME280;70698;44.402;18.522;2024-03-25T05:54:46;96831.63;;;-0.03;100.00
81224;BME280;70698;44.402;18.522;2024-03-25T05:57:13;96833.13;;;0.20;100.00
81224;BME280;70698;44.402;18.522;2024-03-25T05:59:39;96837.81;;;0.26;100.00
81224;BME280;70698;44.402;18.522;2024-03-25T06:02:04;96832.47;;;0.39;100.00
81224;BME280;70698;44.402;18.522;2024-03-25T06:04:30;96841.03;;;0.39;100.00
81224;BME280;70698;44.402;18.522;2024-03-25T06:06:56;96836.03;;;0.48;100.00
81224;BME280;70698;44.402;18.522;2024-03-25T06:09:21;96847.50;;;0.55;100.00
81224;BME280;70698;44.402;18.522;2024-03-25T06:11:47;96847.69;;;0.63;100.00
81224;BME280;70698;44.402;18.522;2024-03-25T06:14:13;96851.50;;;0.89;100.00
81224;BME280;70698;44.402;18.522;2024-03-25T06:16:38;96841.00;;;0.91;100.00
81224;BME280;70698;44.402;18.522;2024-03-25T06:19:04;96852.38;;;1.09;100.00
81224;BME280;70698;44.402;18.522;2024-03-25T06:21:30;96858.47;;;0.98;100.00
81224;BME280;70698;44.402;18.522;2024-03-25T06:23:56;96855.94;;;1.17;100.00
81224;BME280;70698;44.402;18.522;2024-03-25T06:26:21;96858.03;;;1.23;100.00
81224;BME280;70698;44.402;18.522;2024-03-25T06:28:47;96867.50;;;1.53;100.00
81224;BME280;70698;44.402;18.522;2024-03-25T06:31:13;96874.44;;;1.53;100.00
81224;BME280;70698;44.402;18.522;2024-03-25T06:33:57;96869.13;;;1.54;100.00
81224;BME280;70698;44.402;18.522;2024-03-25T06:36:41;96873.22;;;1.57;100.00
81224;BME280;70698;44.402;18.522;2024-03-25T06:39:07;96884.84;;;1.72;100.00
81224;BME280;70698;44.402;18.522;2024-03-25T06:41:33;96877.84;;;1.53;100.00
81224;BME280;70698;44.402;18.522;2024-03-25T06:43:58;96887.16;;;1.75;100.00
81224;BME280;70698;44.402;18.522;2024-03-25T06:46:24;96895.09;;;1.83;100.00
81224;BME280;70698;44.402;18.522;2024-03-25T06:48:49;96884.44;;;1.96;100.00
81224;BME280;70698;44.402;18.522;2024-03-25T06:51:18;96893.03;;;1.96;100.00
81224;BME280;70698;44.402;18.522;2024-03-25T06:53:44;96888.81;;;2.14;100.00
81224;BME280;70698;44.402;18.522;2024-03-25T06:56:09;96883.06;;;2.49;100.00
81224;BME280;70698;44.402;18.522;2024-03-25T06:58:35;96883.31;;;2.66;100.00
81224;BME280;70698;44.402;18.522;2024-03-25T07:01:08;96879.09;;;3.11;100.00
81224;BME280;70698;44.402;18.522;2024-03-25T07:03:34;96874.63;;;3.03;100.00
81224;BME280;70698;44.402;18.522;2024-03-25T07:06:01;96873.81;;;3.30;100.00
81224;BME280;70698;44.402;18.522;2024-03-25T07:08:29;96866.72;;;3.50;100.00
81224;BME280;70698;44.402;18.522;2024-03-25T07:10:58;96875.09;;;3.89;100.00
81224;BME280;70698;44.402;18.522;2024-03-25T07:13:25;96881.22;;;4.15;100.00
81224;BME280;70698;44.402;18.522;2024-03-25T07:15:51;96867.84;;;4.10;100.00
81224;BME280;70698;44.402;18.522;2024-03-25T07:18:17;96878.44;;;4.34;100.00
81224;BME280;70698;44.402;18.522;2024-03-25T07:20:43;96877.19;;;4.39;100.00
81224;BME280;70698;44.402;18.522;2024-03-25T07:23:09;96882.56;;;4.37;100.00
81224;BME280;70698;44.402;18.522;2024-03-25T07:25:35;96883.97;;;4.75;100.00
81224;BME280;70698;44.402;18.522;2024-03-25T07:28:02;96878.13;;;4.55;100.00
81224;BME280;70698;44.402;18.522;2024-03-25T07:30:28;96869.84;;;4.78;100.00
81224;BME280;70698;44.402;18.522;2024-03-25T07:32:55;96875.41;;;4.83;100.00
81224;BME280;70698;44.402;18.522;2024-03-25T07:35:21;96882.31;;;5.00;100.00
81224;BME280;70698;44.402;18.522;2024-03-25T07:37:47;96879.50;;;4.93;100.00
81224;BME280;70698;44.402;18.522;2024-03-25T07:40:12;96886.31;;;4.86;100.00
81224;BME280;70698;44.402;18.522;2024-03-25T07:42:39;96889.78;;;4.95;100.00
81224;BME280;70698;44.402;18.522;2024-03-25T07:45:05;96894.88;;;5.04;100.00
81224;BME280;70698;44.402;18.522;2024-03-25T07:47:34;96890.22;;;5.08;100.00
81224;BME280;70698;44.402;18.522;2024-03-25T07:49:59;96897.94;;;5.26;100.00
81224;BME280;70698;44.402;18.522;2024-03-25T07:52:26;96895.09;;;5.45;100.00
81224;BME280;70698;44.402;18.522;2024-03-25T07:54:53;96889.75;;;5.54;100.00
81224;BME280;70698;44.402;18.522;2024-03-25T07:57:18;96893.03;;;5.56;100.00
81224;BME280;70698;44.402;18.522;2024-03-25T07:59:47;96892.63;;;5.77;100.00
81224;BME280;70698;44.402;18.522;2024-03-25T08:02:13;96903.00;;;6.11;100.00
81224;BME280;70698;44.402;18.522;2024-03-25T08:04:39;96903.97;;;6.10;100.00
81224;BME280;70698;44.402;18.522;2024-03-25T08:07:04;96893.22;;;6.29;100.00
81224;BME280;70698;44.402;18.522;2024-03-25T08:09:30;96889.31;;;6.49;100.00
81224;BME280;70698;44.402;18.522;2024-03-25T08:11:56;96897.66;;;6.45;100.00
81224;BME280;70698;44.402;18.522;2024-03-25T08:14:22;96897.16;;;6.58;100.00
81224;BME280;70698;44.402;18.522;2024-03-25T08:16:48;96905.94;;;6.89;100.00
81224;BME280;70698;44.402;18.522;2024-03-25T08:19:14;96912.94;;;7.13;100.00
81224;BME280;70698;44.402;18.522;2024-03-25T08:21:39;96919.50;;;7.01;100.00
81224;BME280;70698;44.402;18.522;2024-03-25T08:24:05;96909.53;;;7.04;100.00
81224;BME280;70698;44.402;18.522;2024-03-25T08:26:31;96901.31;;;7.31;100.00
81224;BME280;70698;44.402;18.522;2024-03-25T08:28:57;96911.06;;;7.46;100.00
81224;BME280;70698;44.402;18.522;2024-03-25T08:31:23;96907.94;;;7.50;100.00
81224;BME280;70698;44.402;18.522;2024-03-25T08:33:48;96914.81;;;7.82;100.00
81224;BME280;70698;44.402;18.522;2024-03-25T08:36:14;96917.97;;;8.08;100.00
81224;BME280;70698;44.402;18.522;2024-03-25T08:38:40;96916.13;;;7.86;100.00
81224;BME280;70698;44.402;18.522;2024-03-25T08:41:06;96920.72;;;8.15;100.00
81224;BME280;70698;44.402;18.522;2024-03-25T08:43:32;96920.75;;;8.38;100.00
81224;BME280;70698;44.402;18.522;2024-03-25T08:45:57;96916.63;;;8.43;100.00
81224;BME280;70698;44.402;18.522;2024-03-25T08:48:23;96908.91;;;8.50;99.61
81224;BME280;70698;44.402;18.522;2024-03-25T08:50:49;96909.41;;;8.68;100.00
81224;BME280;70698;44.402;18.522;2024-03-25T08:53:15;96909.81;;;8.80;97.74
81224;BME280;70698;44.402;18.522;2024-03-25T08:55:45;96914.13;;;8.73;94.87
81224;BME280;70698;44.402;18.522;2024-03-25T08:58:14;96903.97;;;8.92;94.99
81224;BME280;70698;44.402;18.522;2024-03-25T09:00:41;96905.84;;;9.36;95.26
81224;BME280;70698;44.402;18.522;2024-03-25T09:03:07;96905.75;;;9.59;91.32
81224;BME280;70698;44.402;18.522;2024-03-25T09:05:33;96897.84;;;9.73;91.18
81224;BME280;70698;44.402;18.522;2024-03-25T09:08:00;96904.28;;;9.85;84.88
81224;BME280;70698;44.402;18.522;2024-03-25T09:10:26;96895.03;;;9.89;81.03
81224;BME280;70698;44.402;18.522;2024-03-25T09:13:14;96901.25;;;10.18;81.77
81224;BME280;70698;44.402;18.522;2024-03-25T09:15:40;96901.13;;;10.47;76.30
81224;BME280;70698;44.402;18.522;2024-03-25T09:18:06;96899.00;;;10.57;76.67
81224;BME280;70698;44.402;18.522;2024-03-25T09:20:31;96903.88;;;10.82;73.30
81224;BME280;70698;44.402;18.522;2024-03-25T09:22:57;96897.50;;;10.69;66.50
81224;BME280;70698;44.402;18.522;2024-03-25T09:25:23;96894.91;;;10.76;68.72
81224;BME280;70698;44.402;18.522;2024-03-25T09:27:49;96896.09;;;11.22;68.39
81224;BME280;70698;44.402;18.522;2024-03-25T09:30:16;96917.25;;;11.08;63.78
81224;BME280;70698;44.402;18.522;2024-03-25T09:32:42;96904.66;;;10.75;64.69
81224;BME280;70698;44.402;18.522;2024-03-25T09:35:11;96900.19;;;11.25;64.13
81224;BME280;70698;44.402;18.522;2024-03-25T09:37:37;96904.31;;;11.41;59.16
81224;BME280;70698;44.402;18.522;2024-03-25T09:40:03;96903.00;;;11.58;58.00
81224;BME280;70698;44.402;18.522;2024-03-25T09:42:48;96900.84;;;12.16;55.86
81224;BME280;70698;44.402;18.522;2024-03-25T09:45:17;96906.91;;;11.69;52.04
81224;BME280;70698;44.402;18.522;2024-03-25T09:47:47;96893.22;;;11.86;62.10
81224;BME280;70698;44.402;18.522;2024-03-25T09:50:14;96902.53;;;10.64;66.79
81224;BME280;70698;44.402;18.522;2024-03-25T09:52:45;96906.75;;;11.42;51.40
81224;BME280;70698;44.402;18.522;2024-03-25T09:55:11;96907.19;;;12.34;48.81
81224;BME280;70698;44.402;18.522;2024-03-25T09:57:38;96902.94;;;12.40;46.40
81224;BME280;70698;44.402;18.522;2024-03-25T10:00:07;96895.09;;;13.39;47.45
81224;BME280;70698;44.402;18.522;2024-03-25T10:02:41;96894.81;;;12.41;61.77
81224;BME280;70698;44.402;18.522;2024-03-25T10:05:07;96892.16;;;12.22;66.11
81224;BME280;70698;44.402;18.522;2024-03-25T10:07:34;96891.72;;;12.12;64.70
81224;BME280;70698;44.402;18.522;2024-03-25T10:10:06;96886.75;;;12.49;64.72
81224;BME280;70698;44.402;18.522;2024-03-25T10:12:32;96887.19;;;12.73;63.62
81224;BME280;70698;44.402;18.522;2024-03-25T10:14:58;96884.06;;;12.23;59.51
81224;BME280;70698;44.402;18.522;2024-03-25T10:17:24;96882.13;;;12.84;60.90
81224;BME280;70698;44.402;18.522;2024-03-25T10:19:50;96881.78;;;12.07;60.95
81224;BME280;70698;44.402;18.522;2024-03-25T10:22:16;96884.84;;;12.17;59.43
81224;BME280;70698;44.402;18.522;2024-03-25T10:24:45;96867.28;;;12.44;59.81
81224;BME280;70698;44.402;18.522;2024-03-25T10:27:18;96865.47;;;12.97;59.07
81224;BME280;70698;44.402;18.522;2024-03-25T10:29:51;96864.88;;;13.15;61.56
81224;BME280;70698;44.402;18.522;2024-03-25T10:32:17;96856.75;;;13.29;60.14
81224;BME280;70698;44.402;18.522;2024-03-25T10:34:42;96877.44;;;13.26;57.92
81224;BME280;70698;44.402;18.522;2024-03-25T10:37:10;96873.19;;;13.25;54.79
81224;BME280;70698;44.402;18.522;2024-03-25T10:39:39;96884.53;;;12.86;48.14
81224;BME280;70698;44.402;18.522;2024-03-25T10:42:11;96878.88;;;13.09;44.65
81224;BME280;70698;44.402;18.522;2024-03-25T10:44:38;96870.28;;;13.59;42.56
81224;BME280;70698;44.402;18.522;2024-03-25T10:47:05;96877.81;;;13.43;40.72
81224;BME280;70698;44.402;18.522;2024-03-25T10:49:32;96879.66;;;13.42;41.56
81224;BME280;70698;44.402;18.522;2024-03-25T10:52:01;96868.28;;;13.35;46.00
81224;BME280;70698;44.402;18.522;2024-03-25T10:54:30;96868.59;;;13.71;47.13
81224;BME280;70698;44.402;18.522;2024-03-25T10:56:57;96866.28;;;14.33;46.82
81224;BME280;70698;44.402;18.522;2024-03-25T10:59:26;96869.81;;;14.58;38.37
81224;BME280;70698;44.402;18.522;2024-03-25T11:01:53;96866.56;;;14.18;38.51
81224;BME280;70698;44.402;18.522;2024-03-25T11:04:20;96857.91;;;14.42;41.50
81224;BME280;70698;44.402;18.522;2024-03-25T11:06:46;96863.84;;;15.37;39.27
81224;BME280;70698;44.402;18.522;2024-03-25T11:09:22;96846.75;;;15.15;38.42
81224;BME280;70698;44.402;18.522;2024-03-25T11:11:52;96856.97;;;15.11;35.93
81224;BME280;70698;44.402;18.522;2024-03-25T11:14:18;96849.44;;;16.06;32.25
81224;BME280;70698;44.402;18.522;2024-03-25T11:16:51;96847.19;;;15.12;31.82
81224;BME280;70698;44.402;18.522;2024-03-25T11:19:18;96847.09;;;14.12;33.66
81224;BME280;70698;44.402;18.522;2024-03-25T11:21:43;96851.00;;;14.03;31.62
81224;BME280;70698;44.402;18.522;2024-03-25T11:24:09;96851.38;;;14.76;31.71
81224;BME280;70698;44.402;18.522;2024-03-25T11:26:40;96842.06;;;15.35;32.28
81224;BME280;70698;44.402;18.522;2024-03-25T11:29:06;96839.88;;;14.64;32.08
81224;BME280;70698;44.402;18.522;2024-03-25T11:31:33;96844.25;;;14.45;37.54
81224;BME280;70698;44.402;18.522;2024-03-25T11:34:05;96832.22;;;15.97;34.85
81224;BME280;70698;44.402;18.522;2024-03-25T11:36:33;96832.09;;;15.37;35.54
81224;BME280;70698;44.402;18.522;2024-03-25T11:39:03;96845.25;;;13.68;37.13
81224;BME280;70698;44.402;18.522;2024-03-25T11:41:33;96837.84;;;14.59;35.95
81224;BME280;70698;44.402;18.522;2024-03-25T11:43:59;96827.03;;;13.54;37.52
81224;BME280;70698;44.402;18.522;2024-03-25T11:46:25;96843.56;;;13.23;36.34
81224;BME280;70698;44.402;18.522;2024-03-25T11:48:52;96836.59;;;13.99;34.89
81224;BME280;70698;44.402;18.522;2024-03-25T11:51:18;96838.06;;;15.07;31.83
81224;BME280;70698;44.402;18.522;2024-03-25T11:53:43;96825.00;;;16.04;36.64
81224;BME280;70698;44.402;18.522;2024-03-25T11:56:10;96824.81;;;16.17;29.63
81224;BME280;70698;44.402;18.522;2024-03-25T11:58:37;96810.13;;;16.32;32.40
81224;BME280;70698;44.402;18.522;2024-03-25T12:01:03;96819.72;;;16.87;32.87
81224;BME280;70698;44.402;18.522;2024-03-25T12:03:30;96818.09;;;17.09;30.35
81224;BME280;70698;44.402;18.522;2024-03-25T12:05:56;96812.91;;;15.60;38.53
81224;BME280;70698;44.402;18.522;2024-03-25T12:08:23;96817.81;;;15.74;33.42
81224;BME280;70698;44.402;18.522;2024-03-25T12:10:51;96812.50;;;15.74;31.37
81224;BME280;70698;44.402;18.522;2024-03-25T12:13:38;96815.78;;;16.06;34.93
81224;BME280;70698;44.402;18.522;2024-03-25T12:16:08;96799.50;;;16.74;32.35
81224;BME280;70698;44.402;18.522;2024-03-25T12:18:35;96820.09;;;15.71;31.90
81224;BME280;70698;44.402;18.522;2024-03-25T12:21:04;96810.06;;;16.21;30.93
81224;BME280;70698;44.402;18.522;2024-03-25T12:23:33;96810.78;;;16.69;30.36
81224;BME280;70698;44.402;18.522;2024-03-25T12:26:02;96807.84;;;15.15;31.84
81224;BME280;70698;44.402;18.522;2024-03-25T12:28:31;96808.72;;;14.03;32.48
81224;BME280;70698;44.402;18.522;2024-03-25T12:30:56;96804.94;;;15.23;38.63
81224;BME280;70698;44.402;18.522;2024-03-25T12:33:23;96801.75;;;16.47;31.86
81224;BME280;70698;44.402;18.522;2024-03-25T12:35:50;96807.06;;;16.59;33.52
81224;BME280;70698;44.402;18.522;2024-03-25T12:38:30;96792.91;;;16.65;35.26
81224;BME280;70698;44.402;18.522;2024-03-25T12:41:10;96786.91;;;16.69;37.26
81224;BME280;70698;44.402;18.522;2024-03-25T12:43:42;96795.97;;;16.39;32.05
81224;BME280;70698;44.402;18.522;2024-03-25T12:46:08;96781.94;;;16.61;35.89